Time;durP1;ratioP1;P1;durP2;ratioP2;P2;SDS_P1;SDS_P2;PMS_P1;PMS_P2;Temp;Humidity;BMP_temperature;BMP_pressure;BME280_temperature;BME280_humidity;BME280_pressure;Samples;Min_cycle;Max_cycle;Signal;HPM_P1;HPM_P2
2022/03/28 00:01:28;;;;;;;116.95;90.40;;;;;;;;;;4972975;28;20822;-60
2022/03/28 00:03:54;;;;;;;114.77;91.37;;;;;;;;;;4973204;28;20174;-60
2022/03/28 00:06:20;;;;;;;104.30;86.70;;;;;;;;;;4973079;28;20406;-60
2022/03/28 00:08:46;;;;;;;111.20;90.07;;;;;;;;;;4972811;28;20455;-60
2022/03/28 00:11:12;;;;;;;110.35;86.40;;;;;;;;;;4973029;28;20889;-61
2022/03/28 00:13:38;;;;;;;108.43;88.53;;;;;;;;;;4972964;28;20185;-61
2022/03/28 00:16:04;;;;;;;111.03;86.87;;;;;;;;;;4972871;28;20418;-61
2022/03/28 00:18:30;;;;;;;101.50;82.55;;;;;;;;;;4972798;28;20430;-60
2022/03/28 00:20:57;;;;;;;106.80;86.87;;;;;;;;;;4972589;28;20180;-61
2022/03/28 00:23:23;;;;;;;104.10;86.03;;;;;;;;;;4972760;28;20522;-61
2022/03/28 00:25:49;;;;;;;104.03;86.50;;;;;;;;;;4972780;28;20271;-61
2022/03/28 00:28:15;;;;;;;116.63;91.80;;;;;;;;;;4972599;28;20242;-60
2022/03/28 00:30:42;;;;;;;118.28;91.28;;;;;;;;;;4972465;28;20179;-62
2022/03/28 00:33:08;;;;;;;109.20;89.75;;;;;;;;;;4972504;28;20175;-61
2022/03/28 00:35:35;;;;;;;112.20;90.32;;;;;;;;;;4972626;28;20197;-61
2022/03/28 00:38:01;;;;;;;107.80;84.93;;;;;;;;;;4972548;28;20214;-60
2022/03/28 00:40:31;;;;;;;127.28;91.40;;;;;;;;;;4972399;28;20183;-61
2022/03/28 00:42:57;;;;;;;122.03;88.13;;;;;;;;;;4972585;28;20270;-61
2022/03/28 00:45:23;;;;;;;120.00;85.10;;;;;;;;;;4972554;28;20207;-61
2022/03/28 00:47:49;;;;;;;129.90;91.47;;;;;;;;;;4972404;28;20469;-61
2022/03/28 00:50:15;;;;;;;146.17;97.40;;;;;;;;;;4972148;28;20838;-61
2022/03/28 00:52:41;;;;;;;139.37;89.60;;;;;;;;;;4972696;28;20418;-60
2022/03/28 00:55:08;;;;;;;150.93;88.97;;;;;;;;;;4974010;28;20445;-59
2022/03/28 00:57:34;;;;;;;156.60;92.65;;;;;;;;;;4972317;28;20191;-59
2022/03/28 01:00:01;;;;;;;161.07;95.05;;;;;;;;;;4972469;28;20270;-60
2022/03/28 01:02:27;;;;;;;151.52;90.90;;;;;;;;;;4972258;28;20267;-59
2022/03/28 01:04:53;;;;;;;160.97;93.07;;;;;;;;;;4972394;28;20258;-60
2022/03/28 01:07:19;;;;;;;162.70;93.47;;;;;;;;;;4973548;28;20984;-60
2022/03/28 01:09:45;;;;;;;167.60;93.35;;;;;;;;;;4972443;28;20434;-58
2022/03/28 01:12:11;;;;;;;153.80;90.30;;;;;;;;;;4972206;28;20178;-60
2022/03/28 01:14:37;;;;;;;169.30;94.20;;;;;;;;;;4972251;28;20410;-61
2022/03/28 01:19:52;;;;;;;166.57;86.65;;;;;;;;;;4972310;28;20190;-60
2022/03/28 01:22:18;;;;;;;161.27;89.70;;;;;;;;;;4972042;28;20171;-61
2022/03/28 01:24:44;;;;;;;165.17;91.33;;;;;;;;;;4972127;28;20410;-61
2022/03/28 01:27:11;;;;;;;165.43;91.72;;;;;;;;;;4972161;28;20406;-61
2022/03/28 01:29:37;;;;;;;139.68;83.53;;;;;;;;;;4972005;28;20187;-61
2022/03/28 01:32:03;;;;;;;152.63;89.87;;;;;;;;;;4971776;28;20178;-59
2022/03/28 01:34:29;;;;;;;153.23;86.82;;;;;;;;;;4972092;28;20493;-61
2022/03/28 01:36:55;;;;;;;154.00;84.87;;;;;;;;;;4972138;28;20270;-59
2022/03/28 01:39:21;;;;;;;166.90;86.47;;;;;;;;;;4971995;28;20438;-61
2022/03/28 01:41:47;;;;;;;164.60;85.17;;;;;;;;;;4971816;28;20418;-61
2022/03/28 01:44:13;;;;;;;173.27;90.45;;;;;;;;;;4973776;28;20442;-61
2022/03/28 01:46:46;;;;;;;173.60;87.47;;;;;;;;;;4975509;28;20179;-61
2022/03/28 01:49:13;;;;;;;162.93;86.60;;;;;;;;;;4975451;28;20254;-61
2022/03/28 01:51:39;;;;;;;132.52;82.68;;;;;;;;;;4975455;28;20190;-58
2022/03/28 01:54:05;;;;;;;151.73;84.93;;;;;;;;;;4975637;28;20174;-61
2022/03/28 01:56:31;;;;;;;171.02;88.05;;;;;;;;;;4975271;28;20654;-61
2022/03/28 01:58:57;;;;;;;167.57;86.37;;;;;;;;;;4975195;28;20250;-61
2022/03/28 02:01:23;;;;;;;170.50;84.53;;;;;;;;;;4975108;28;20415;-59
2022/03/28 02:03:49;;;;;;;170.73;85.57;;;;;;;;;;4975203;28;20419;-61
2022/03/28 02:06:14;;;;;;;161.87;85.03;;;;;;;;;;4975292;28;20418;-60
2022/03/28 02:08:41;;;;;;;152.30;82.68;;;;;;;;;;4975057;28;20470;-59
2022/03/28 02:11:07;;;;;;;110.68;73.75;;;;;;;;;;4975018;28;20300;-61
2022/03/28 02:13:33;;;;;;;112.60;76.65;;;;;;;;;;4975087;28;20282;-61
2022/03/28 02:16:00;;;;;;;119.03;74.57;;;;;;;;;;4975137;28;20182;-61
2022/03/28 02:18:26;;;;;;;146.45;81.05;;;;;;;;;;4975030;28;20303;-59
2022/03/28 02:20:52;;;;;;;143.88;76.75;;;;;;;;;;4974835;28;20196;-61
2022/03/28 02:23:18;;;;;;;132.47;74.30;;;;;;;;;;4975018;28;20261;-61
2022/03/28 02:25:44;;;;;;;138.63;76.47;;;;;;;;;;4974814;28;20406;-61
2022/03/28 02:28:11;;;;;;;125.33;76.33;;;;;;;;;;4974650;28;20473;-60
2022/03/28 02:30:37;;;;;;;138.55;76.28;;;;;;;;;;4974572;28;20410;-61
2022/03/28 02:33:04;;;;;;;142.70;78.60;;;;;;;;;;4974848;28;20174;-61
2022/03/28 02:35:30;;;;;;;137.75;77.30;;;;;;;;;;4974767;28;20179;-59
2022/03/28 02:38:01;;;;;;;145.33;75.60;;;;;;;;;;4974658;28;20249;-61
2022/03/28 02:40:27;;;;;;;155.52;76.78;;;;;;;;;;4974552;28;20418;-60
2022/03/28 02:42:54;;;;;;;163.37;79.80;;;;;;;;;;4974493;28;20546;-60
2022/03/28 02:45:20;;;;;;;139.73;75.07;;;;;;;;;;4974785;28;20505;-60
2022/03/28 02:47:46;;;;;;;158.13;77.57;;;;;;;;;;4974404;28;20289;-60
2022/03/28 02:50:12;;;;;;;161.27;79.97;;;;;;;;;;4974244;28;20415;-60
2022/03/28 02:52:38;;;;;;;169.38;81.88;;;;;;;;;;4974376;28;20410;-60
2022/03/28 02:55:04;;;;;;;170.57;83.03;;;;;;;;;;4974274;28;20641;-61
2022/03/28 02:57:30;;;;;;;166.13;82.30;;;;;;;;;;4974038;28;20578;-60
2022/03/28 02:59:56;;;;;;;157.10;80.30;;;;;;;;;;4974337;28;20182;-61
2022/03/28 03:02:22;;;;;;;166.03;81.07;;;;;;;;;;4974075;28;20785;-60
2022/03/28 03:04:48;;;;;;;157.97;76.07;;;;;;;;;;4974150;28;20906;-61
2022/03/28 03:07:14;;;;;;;158.20;79.60;;;;;;;;;;4956780;28;20430;-61
2022/03/28 03:09:40;;;;;;;151.57;76.00;;;;;;;;;;4974037;28;20437;-61
2022/03/28 03:12:06;;;;;;;154.47;75.57;;;;;;;;;;4973742;28;20418;-61
2022/03/28 03:14:32;;;;;;;153.48;77.65;;;;;;;;;;4974057;28;20413;-61
2022/03/28 03:16:58;;;;;;;154.90;75.40;;;;;;;;;;4973966;28;20186;-61
2022/03/28 03:19:24;;;;;;;154.00;78.25;;;;;;;;;;4973791;28;20213;-60
2022/03/28 03:21:50;;;;;;;149.00;75.97;;;;;;;;;;4973717;28;20175;-61
2022/03/28 03:24:17;;;;;;;139.43;74.25;;;;;;;;;;4973875;28;20419;-61
2022/03/28 03:26:43;;;;;;;143.90;73.32;;;;;;;;;;4973583;28;20175;-60
2022/03/28 03:29:09;;;;;;;149.32;75.90;;;;;;;;;;4973648;28;20215;-61
2022/03/28 03:31:35;;;;;;;140.65;73.00;;;;;;;;;;4973544;28;20175;-60
2022/03/28 03:34:01;;;;;;;133.50;71.57;;;;;;;;;;4973714;28;20331;-60
2022/03/28 03:36:27;;;;;;;135.20;69.70;;;;;;;;;;4973692;28;20410;-60
2022/03/28 03:38:53;;;;;;;138.70;71.77;;;;;;;;;;4973392;28;20705;-60
2022/03/28 03:41:19;;;;;;;117.45;66.90;;;;;;;;;;4973260;28;20414;-60
2022/03/28 03:43:45;;;;;;;136.48;72.57;;;;;;;;;;4973482;28;20249;-61
2022/03/28 03:46:11;;;;;;;134.57;71.10;;;;;;;;;;4973468;28;20181;-59
2022/03/28 03:48:37;;;;;;;131.77;71.68;;;;;;;;;;4973235;28;20476;-60
2022/03/28 03:51:03;;;;;;;139.97;70.57;;;;;;;;;;4973474;28;20171;-60
2022/03/28 03:53:29;;;;;;;133.40;71.43;;;;;;;;;;4973268;28;20406;-61
2022/03/28 03:55:55;;;;;;;128.57;71.25;;;;;;;;;;4973019;28;20414;-61
2022/03/28 03:58:21;;;;;;;106.43;64.78;;;;;;;;;;4973116;28;20690;-61
2022/03/28 04:00:47;;;;;;;119.90;67.77;;;;;;;;;;4972986;28;20179;-59
2022/03/28 04:03:13;;;;;;;113.10;65.10;;;;;;;;;;4973293;28;20429;-61
2022/03/28 04:05:39;;;;;;;115.83;63.97;;;;;;;;;;4973022;28;20467;-60
2022/03/28 04:08:06;;;;;;;129.48;69.90;;;;;;;;;;4972624;28;20929;-61
2022/03/28 04:10:32;;;;;;;134.18;67.72;;;;;;;;;;4972677;28;20171;-60
2022/03/28 04:12:58;;;;;;;134.43;70.35;;;;;;;;;;4973033;28;20293;-60
2022/03/28 04:15:24;;;;;;;125.30;68.70;;;;;;;;;;4973060;28;20714;-60
2022/03/28 04:17:50;;;;;;;136.70;70.57;;;;;;;;;;4972905;28;20526;-60
2022/03/28 04:20:16;;;;;;;124.07;69.97;;;;;;;;;;4972718;28;20420;-60
2022/03/28 04:22:43;;;;;;;128.80;69.05;;;;;;;;;;4974777;28;20410;-59
2022/03/28 04:25:09;;;;;;;121.70;67.90;;;;;;;;;;4973206;28;20668;-60
2022/03/28 04:27:36;;;;;;;125.35;68.65;;;;;;;;;;4972805;28;20207;-59
2022/03/28 04:30:04;;;;;;;127.82;69.75;;;;;;;;;;4972777;28;20645;-57
2022/03/28 04:32:30;;;;;;;110.82;66.72;;;;;;;;;;4972629;28;20257;-59
2022/03/28 04:34:56;;;;;;;120.30;65.97;;;;;;;;;;4972743;28;20198;-60
2022/03/28 04:37:22;;;;;;;104.90;65.67;;;;;;;;;;4972593;28;20413;-59
2022/03/28 04:39:48;;;;;;;107.30;64.70;;;;;;;;;;4972528;28;20441;-58
2022/03/28 04:42:14;;;;;;;112.38;65.03;;;;;;;;;;4972478;28;20417;-61
2022/03/28 04:44:40;;;;;;;128.13;63.90;;;;;;;;;;4972673;28;20233;-61
2022/03/28 04:47:06;;;;;;;123.97;65.67;;;;;;;;;;4972653;28;20264;-60
2022/03/28 04:49:32;;;;;;;139.05;70.32;;;;;;;;;;4972353;28;20480;-61
2022/03/28 04:51:58;;;;;;;135.90;70.37;;;;;;;;;;4972344;28;20167;-59
2022/03/28 04:54:24;;;;;;;119.78;63.78;;;;;;;;;;4972774;28;20429;-58
2022/03/28 04:56:50;;;;;;;118.35;62.08;;;;;;;;;;4972963;28;20197;-60
2022/03/28 04:59:16;;;;;;;119.33;66.03;;;;;;;;;;4972892;28;20220;-59
2022/03/28 05:01:42;;;;;;;118.13;64.45;;;;;;;;;;4972375;28;20417;-61
2022/03/28 05:04:08;;;;;;;111.60;62.47;;;;;;;;;;4972493;28;20427;-60
2022/03/28 05:06:34;;;;;;;115.40;64.67;;;;;;;;;;4972429;28;20960;-60
2022/03/28 05:09:00;;;;;;;115.90;62.87;;;;;;;;;;4972208;28;20484;-60
2022/03/28 05:11:26;;;;;;;122.70;64.93;;;;;;;;;;4972187;28;20409;-60
2022/03/28 05:13:52;;;;;;;116.05;64.22;;;;;;;;;;4972404;28;20821;-59
2022/03/28 05:16:18;;;;;;;109.97;62.95;;;;;;;;;;4972341;28;20179;-60
2022/03/28 05:18:44;;;;;;;110.65;65.10;;;;;;;;;;4973479;28;20208;-60
2022/03/28 05:21:10;;;;;;;109.57;65.10;;;;;;;;;;4975962;28;20267;-60
2022/03/28 05:23:36;;;;;;;101.47;62.87;;;;;;;;;;4976099;28;20776;-60
2022/03/28 05:26:03;;;;;;;98.25;66.13;;;;;;;;;;4976041;28;20418;-60
2022/03/28 05:28:29;;;;;;;104.43;62.17;;;;;;;;;;4975954;28;20356;-60
2022/03/28 05:30:57;;;;;;;113.77;64.47;;;;;;;;;;4975682;28;20286;-61
2022/03/28 05:33:23;;;;;;;109.50;60.83;;;;;;;;;;4975922;28;20417;-60
2022/03/28 05:35:50;;;;;;;110.32;64.57;;;;;;;;;;4975763;28;20181;-60
2022/03/28 05:38:15;;;;;;;112.90;63.08;;;;;;;;;;4975659;28;20213;-60
2022/03/28 05:40:41;;;;;;;112.43;62.90;;;;;;;;;;4975584;28;20187;-60
2022/03/28 05:43:07;;;;;;;111.47;66.20;;;;;;;;;;4975836;28;20417;-60
2022/03/28 05:45:35;;;;;;;109.37;63.47;;;;;;;;;;4975705;28;20245;-60
2022/03/28 05:48:01;;;;;;;101.63;61.72;;;;;;;;;;4975296;28;20528;-61
2022/03/28 05:50:27;;;;;;;107.37;66.37;;;;;;;;;;4975249;28;20237;-59
2022/03/28 05:52:54;;;;;;;105.28;63.35;;;;;;;;;;4975444;28;20769;-59
2022/03/28 05:55:20;;;;;;;105.43;59.35;;;;;;;;;;4975539;28;20174;-60
2022/03/28 05:57:46;;;;;;;123.67;66.30;;;;;;;;;;4975461;28;20272;-60
2022/03/28 06:00:13;;;;;;;121.67;67.53;;;;;;;;;;4975280;28;20497;-59
2022/03/28 06:02:40;;;;;;;106.07;59.65;;;;;;;;;;4975343;28;20420;-60
2022/03/28 06:05:06;;;;;;;106.45;64.55;;;;;;;;;;4975258;28;20266;-60
2022/03/28 06:07:32;;;;;;;105.80;62.00;;;;;;;;;;4975172;28;20189;-60
2022/03/28 06:09:58;;;;;;;94.63;59.85;;;;;;;;;;4974930;28;20184;-60
2022/03/28 06:12:24;;;;;;;95.32;61.95;;;;;;;;;;4975413;28;20643;-60
2022/03/28 06:14:50;;;;;;;95.40;61.90;;;;;;;;;;4975113;28;20237;-61
2022/03/28 06:17:23;;;;;;;96.20;63.30;;;;;;;;;;4975097;28;20456;-60
2022/03/28 06:19:49;;;;;;;81.85;57.35;;;;;;;;;;4974842;28;20456;-60
2022/03/28 06:22:15;;;;;;;95.43;64.28;;;;;;;;;;4974922;28;20527;-60
2022/03/28 06:24:41;;;;;;;82.80;58.92;;;;;;;;;;4975171;28;20182;-59
2022/03/28 06:27:07;;;;;;;83.90;62.10;;;;;;;;;;4974798;28;20183;-60
2022/03/28 06:29:33;;;;;;;79.88;59.35;;;;;;;;;;4974242;28;20242;-60
2022/03/28 06:31:59;;;;;;;83.97;62.55;;;;;;;;;;4974540;28;20178;-61
2022/03/28 06:34:25;;;;;;;83.65;58.30;;;;;;;;;;4974977;28;20610;-60
2022/03/28 06:36:51;;;;;;;78.93;59.95;;;;;;;;;;4957819;28;20229;-58
2022/03/28 06:39:17;;;;;;;86.45;61.03;;;;;;;;;;4957711;28;20606;-60
2022/03/28 06:41:43;;;;;;;87.33;60.47;;;;;;;;;;4974350;28;20179;-58
2022/03/28 06:44:12;;;;;;;88.23;60.50;;;;;;;;;;4974673;28;20470;-61
2022/03/28 06:46:40;;;;;;;85.35;61.55;;;;;;;;;;4974446;28;20938;-61
2022/03/28 06:49:06;;;;;;;66.55;59.45;;;;;;;;;;4974621;28;20607;-59
2022/03/28 06:51:33;;;;;;;68.57;61.58;;;;;;;;;;4974336;28;20638;-60
2022/03/28 06:53:59;;;;;;;63.90;57.45;;;;;;;;;;4974404;28;20174;-60
2022/03/28 06:56:25;;;;;;;60.88;55.47;;;;;;;;;;4972918;28;20195;-61
2022/03/28 06:58:52;;;;;;;58.13;52.72;;;;;;;;;;4972671;28;20226;-60
2022/03/28 07:01:18;;;;;;;67.00;60.00;;;;;;;;;;4973219;28;20178;-60
2022/03/28 07:03:44;;;;;;;64.00;57.90;;;;;;;;;;4973667;28;20251;-59
2022/03/28 07:06:10;;;;;;;64.00;57.90;;;;;;;;;;4973503;28;20426;-61
2022/03/28 07:08:37;;;;;;;66.80;60.57;;;;;;;;;;4972062;28;20681;-61
2022/03/28 07:11:03;;;;;;;76.07;68.53;;;;;;;;;;4999938;23;20500;-62
2022/03/28 07:13:30;;;;;;;70.82;64.10;;;;;;;;;;5010972;28;20606;-62
2022/03/28 07:15:56;;;;;;;71.95;65.32;;;;;;;;;;5011066;28;20201;-62
2022/03/28 07:18:22;;;;;;;67.97;61.90;;;;;;;;;;5012210;28;20236;-62
2022/03/28 07:20:50;;;;;;;64.07;58.78;;;;;;;;;;5012160;28;20190;-62
2022/03/28 07:23:17;;;;;;;68.05;62.35;;;;;;;;;;5011745;28;20596;-62
2022/03/28 07:25:43;;;;;;;74.90;68.50;;;;;;;;;;5008039;28;20173;-62
2022/03/28 07:28:10;;;;;;;66.57;61.22;;;;;;;;;;5005667;28;20587;-62
2022/03/28 07:30:37;;;;;;;78.40;72.10;;;;;;;;;;5004675;28;20278;-62
2022/03/28 07:33:03;;;;;;;75.32;69.13;;;;;;;;;;5006486;28;20231;-62
2022/03/28 07:35:39;;;;;;;85.47;78.68;;;;;;;;;;5001791;28;20262;-61
2022/03/28 07:38:08;;;;;;;77.75;71.60;;;;;;;;;;5003912;28;20288;-62
2022/03/28 07:40:34;;;;;;;77.35;71.25;;;;;;;;;;4995910;28;20601;-62
2022/03/28 07:43:00;;;;;;;81.80;75.40;;;;;;;;;;4992106;28;20210;-62
2022/03/28 07:45:26;;;;;;;79.83;73.60;;;;;;;;;;4995589;28;20260;-62
2022/03/28 07:47:52;;;;;;;77.20;71.50;;;;;;;;;;4997104;28;20488;-62
2022/03/28 07:50:18;;;;;;;86.13;79.93;;;;;;;;;;5000371;28;20188;-62
2022/03/28 07:52:44;;;;;;;85.63;79.23;;;;;;;;;;5011921;28;20170;-62
2022/03/28 07:55:13;;;;;;;79.47;73.68;;;;;;;;;;5011905;28;20408;-62
2022/03/28 07:57:39;;;;;;;80.90;75.20;;;;;;;;;;5007547;28;20169;-61
2022/03/28 08:00:07;;;;;;;81.65;76.20;;;;;;;;;;4997904;28;20721;-62
2022/03/28 08:02:33;;;;;;;79.97;74.68;;;;;;;;;;5001036;28;20672;-62
2022/03/28 08:04:59;;;;;;;74.70;70.03;;;;;;;;;;5003153;28;20189;-62
2022/03/28 08:07:25;;;;;;;82.65;77.55;;;;;;;;;;4992454;28;20909;-62
2022/03/28 08:09:51;;;;;;;86.77;81.37;;;;;;;;;;4992229;28;20179;-62
2022/03/28 08:12:17;;;;;;;90.95;85.55;;;;;;;;;;4999693;28;20488;-62
2022/03/28 08:14:43;;;;;;;90.50;85.00;;;;;;;;;;5001321;28;20197;-62
2022/03/28 08:17:09;;;;;;;96.05;90.30;;;;;;;;;;4999882;28;20429;-62
2022/03/28 08:19:35;;;;;;;104.27;98.07;;;;;;;;;;4992014;28;20178;-62
2022/03/28 08:22:01;;;;;;;101.93;96.03;;;;;;;;;;4992133;28;20772;-62
2022/03/28 08:24:27;;;;;;;104.82;98.72;;;;;;;;;;4992152;28;20484;-62
2022/03/28 08:26:53;;;;;;;113.63;106.90;;;;;;;;;;4992379;28;20181;-62
2022/03/28 08:29:19;;;;;;;118.10;111.20;;;;;;;;;;4991912;28;20528;-62
2022/03/28 08:31:45;;;;;;;138.00;129.53;;;;;;;;;;4991642;28;20941;-63
2022/03/28 08:34:11;;;;;;;121.03;114.13;;;;;;;;;;4991687;28;20931;-63
2022/03/28 08:36:37;;;;;;;118.47;111.77;;;;;;;;;;4991950;28;20198;-63
2022/03/28 08:39:04;;;;;;;123.57;116.63;;;;;;;;;;4991798;28;20405;-63
2022/03/28 08:41:32;;;;;;;113.95;108.07;;;;;;;;;;4991791;28;20522;-66
2022/03/28 08:43:58;;;;;;;136.97;129.97;;;;;;;;;;4974156;28;20606;-63
2022/03/28 08:46:24;;;;;;;129.13;122.87;;;;;;;;;;4991903;28;20414;-63
2022/03/28 08:48:53;;;;;;;140.03;133.53;;;;;;;;;;4992019;28;20468;-63
2022/03/28 08:51:20;;;;;;;182.43;174.23;;;;;;;;;;4991800;28;20430;-63
2022/03/28 08:53:46;;;;;;;176.20;168.90;;;;;;;;;;4995270;28;20766;-63
2022/03/28 08:56:12;;;;;;;204.87;196.37;;;;;;;;;;4996310;28;20501;-63
2022/03/28 08:58:38;;;;;;;221.43;212.83;;;;;;;;;;4995586;28;20924;-63
2022/03/28 09:01:05;;;;;;;238.03;228.80;;;;;;;;;;4977965;28;20444;-61
2022/03/28 09:04:00;;;;;;;255.70;246.37;;;;;;;;;;4995922;28;20420;-62
2022/03/28 09:06:35;;;;;;;258.63;249.53;;;;;;;;;;4975098;28;20440;-63
2022/03/28 09:09:16;;;;;;;299.67;289.27;;;;;;;;;;4995768;28;20440;-61
2022/03/28 09:11:42;;;;;;;297.20;287.17;;;;;;;;;;4995585;28;20428;-61
2022/03/28 09:14:11;;;;;;;306.77;296.67;;;;;;;;;;4997065;28;20753;-61
2022/03/28 09:16:37;;;;;;;312.57;302.17;;;;;;;;;;4995901;28;20396;-61
2022/03/28 09:19:08;;;;;;;325.50;314.70;;;;;;;;;;4995645;28;20403;-62
2022/03/28 09:21:34;;;;;;;322.43;311.80;;;;;;;;;;4995356;28;20426;-61
2022/03/28 09:24:03;;;;;;;254.03;246.33;;;;;;;;;;4995674;28;20508;-62
2022/03/28 09:26:30;;;;;;;242.60;235.30;;;;;;;;;;5002526;28;20430;-62
2022/03/28 09:29:01;;;;;;;234.47;227.50;;;;;;;;;;5002773;28;20970;-62
2022/03/28 09:31:30;;;;;;;240.53;233.30;;;;;;;;;;5003427;28;20436;-62
2022/03/28 09:33:59;;;;;;;245.83;238.43;;;;;;;;;;5004802;28;20405;-62
2022/03/28 09:36:34;;;;;;;249.53;241.93;;;;;;;;;;5003533;28;20417;-62
2022/03/28 09:39:01;;;;;;;257.53;249.63;;;;;;;;;;5000843;28;20411;-62
2022/03/28 09:41:30;;;;;;;255.50;247.70;;;;;;;;;;5007493;28;20847;-62
2022/03/28 09:43:56;;;;;;;271.13;262.73;;;;;;;;;;4997666;28;20413;-62
2022/03/28 09:46:29;;;;;;;284.90;275.90;;;;;;;;;;4995016;28;20535;-62
2022/03/28 09:48:57;;;;;;;281.13;272.20;;;;;;;;;;4999720;28;20464;-63
2022/03/28 09:51:25;;;;;;;296.97;287.37;;;;;;;;;;4997051;28;21015;-62
2022/03/28 09:53:51;;;;;;;265.03;256.77;;;;;;;;;;4995117;28;20421;-63
2022/03/28 09:56:17;;;;;;;289.03;279.73;;;;;;;;;;4994927;28;20407;-62
2022/03/28 09:58:58;;;;;;;279.77;270.80;;;;;;;;;;4994844;28;20928;-62
2022/03/28 10:01:24;;;;;;;279.00;270.17;;;;;;;;;;4993336;28;20430;-62
2022/03/28 10:03:54;;;;;;;275.03;266.33;;;;;;;;;;4992330;28;20491;-62
2022/03/28 10:06:20;;;;;;;288.93;279.60;;;;;;;;;;4992618;28;20424;-62
2022/03/28 10:08:46;;;;;;;260.40;252.33;;;;;;;;;;4992778;28;20460;-62
2022/03/28 10:11:13;;;;;;;261.63;253.50;;;;;;;;;;4992755;28;20958;-63
2022/03/28 10:13:39;;;;;;;263.63;255.43;;;;;;;;;;4975720;28;20411;-63
2022/03/28 10:16:05;;;;;;;259.20;251.20;;;;;;;;;;4993896;28;20458;-63
2022/03/28 10:18:33;;;;;;;268.33;259.23;;;;;;;;;;4992361;28;20438;-63
2022/03/28 10:21:01;;;;;;;260.10;252.10;;;;;;;;;;4994004;28;20438;-63
2022/03/28 10:23:29;;;;;;;241.53;234.27;;;;;;;;;;4994734;28;20497;-63
2022/03/28 10:25:56;;;;;;;268.43;260.10;;;;;;;;;;4994620;28;20761;-63
2022/03/28 10:28:22;;;;;;;286.63;277.60;;;;;;;;;;4994251;28;20525;-63
2022/03/28 10:30:48;;;;;;;252.53;244.73;;;;;;;;;;4993981;28;20509;-63
2022/03/28 10:33:21;;;;;;;231.60;224.70;;;;;;;;;;4994436;28;20773;-63
2022/03/28 10:35:55;;;;;;;278.07;269.40;;;;;;;;;;4994502;28;20841;-63
2022/03/28 10:38:24;;;;;;;282.50;273.70;;;;;;;;;;4994388;28;20649;-63
2022/03/28 10:40:53;;;;;;;262.73;254.53;;;;;;;;;;4993735;28;20448;-63
2022/03/28 10:43:19;;;;;;;258.00;250.10;;;;;;;;;;4994166;28;20490;-63
2022/03/28 10:45:48;;;;;;;242.27;234.90;;;;;;;;;;4994318;28;20994;-63
2022/03/28 10:48:14;;;;;;;268.63;260.40;;;;;;;;;;4994215;28;20541;-63
2022/03/28 10:50:50;;;;;;;270.90;262.60;;;;;;;;;;4993760;28;20459;-63
2022/03/28 10:53:43;;;;;;;259.67;251.57;;;;;;;;;;4993902;28;20442;-63
2022/03/28 10:56:30;;;;;;;267.57;259.27;;;;;;;;;;4993979;28;20415;-62
2022/03/28 10:59:01;;;;;;;259.03;251.20;;;;;;;;;;4993972;28;20426;-62
2022/03/28 11:01:29;;;;;;;250.03;242.37;;;;;;;;;;4992856;28;20434;-62
2022/03/28 11:03:58;;;;;;;260.73;252.73;;;;;;;;;;4993008;28;20458;-62
2022/03/28 11:06:42;;;;;;;243.23;235.93;;;;;;;;;;4993864;28;20781;-62
2022/03/28 11:09:09;;;;;;;266.00;257.83;;;;;;;;;;4993660;28;20567;-62
2022/03/28 11:11:35;;;;;;;287.33;278.20;;;;;;;;;;4992510;28;20512;-62
2022/03/28 11:14:01;;;;;;;271.83;263.47;;;;;;;;;;4992685;28;20471;-62
2022/03/28 11:16:53;;;;;;;282.87;273.97;;;;;;;;;;4993161;28;20418;-62
2022/03/28 11:19:22;;;;;;;253.90;246.20;;;;;;;;;;4989966;28;20949;-63
2022/03/28 11:22:06;;;;;;;274.57;266.13;;;;;;;;;;4993206;28;20455;-63
2022/03/28 11:24:42;;;;;;;286.17;277.03;;;;;;;;;;4993394;28;20406;-62
2022/03/28 11:27:08;;;;;;;316.03;305.70;;;;;;;;;;4993410;28;20419;-63
2022/03/28 11:29:34;;;;;;;281.23;272.50;;;;;;;;;;4994936;28;20472;-62
2022/03/28 11:32:06;;;;;;;272.20;263.70;;;;;;;;;;4992976;28;20498;-62
2022/03/28 11:34:32;;;;;;;270.57;262.27;;;;;;;;;;4993236;28;20410;-63
2022/03/28 11:36:58;;;;;;;275.40;266.87;;;;;;;;;;4993011;28;20472;-62
2022/03/28 11:39:27;;;;;;;253.77;246.17;;;;;;;;;;4993022;28;20524;-62
2022/03/28 11:41:53;;;;;;;268.33;260.13;;;;;;;;;;4992937;28;20436;-62
2022/03/28 11:44:19;;;;;;;273.57;265.07;;;;;;;;;;4993046;28;20413;-63
2022/03/28 11:46:53;;;;;;;292.57;283.37;;;;;;;;;;4992974;28;20404;-62
2022/03/28 11:49:19;;;;;;;265.40;257.37;;;;;;;;;;4992817;28;20445;-62
2022/03/28 11:51:45;;;;;;;288.37;279.37;;;;;;;;;;4992460;28;20433;-62
2022/03/28 11:54:13;;;;;;;292.37;283.13;;;;;;;;;;4993097;28;20406;-62
2022/03/28 11:59:25;;;;;;;290.60;281.50;;;;;;;;;;4993027;28;20411;-63
2022/03/28 12:02:01;;;;;;;279.70;271.10;;;;;;;;;;4992393;28;20404;-63
2022/03/28 12:04:27;;;;;;;249.10;241.60;;;;;;;;;;4992960;28;20413;-62
2022/03/28 12:06:54;;;;;;;297.20;287.70;;;;;;;;;;4992441;28;20415;-63
2022/03/28 12:09:20;;;;;;;228.23;221.43;;;;;;;;;;4992423;28;20565;-62
2022/03/28 12:11:50;;;;;;;243.37;236.10;;;;;;;;;;4991785;28;20569;-63
2022/03/28 12:14:16;;;;;;;225.37;218.73;;;;;;;;;;4992432;28;20884;-62
2022/03/28 12:16:50;;;;;;;197.47;191.57;;;;;;;;;;4990476;28;20428;-62
2022/03/28 12:19:16;;;;;;;217.10;210.60;;;;;;;;;;4985011;28;20470;-63
2022/03/28 12:21:43;;;;;;;208.63;202.37;;;;;;;;;;4991980;28;20435;-63
2022/03/28 12:24:09;;;;;;;204.03;197.90;;;;;;;;;;4992075;28;20418;-62
2022/03/28 12:26:42;;;;;;;159.60;154.67;;;;;;;;;;4992367;28;20413;-62
2022/03/28 12:29:11;;;;;;;182.03;176.37;;;;;;;;;;4991852;28;20469;-62
2022/03/28 12:31:37;;;;;;;181.90;176.23;;;;;;;;;;4992213;28;20428;-62
2022/03/28 12:34:03;;;;;;;190.40;184.50;;;;;;;;;;4992826;28;20401;-62
2022/03/28 12:36:30;;;;;;;179.77;174.10;;;;;;;;;;4992648;28;20412;-62
2022/03/28 12:39:00;;;;;;;170.23;164.73;;;;;;;;;;4992098;28;20491;-62
2022/03/28 12:41:27;;;;;;;183.40;177.70;;;;;;;;;;4991917;28;20433;-62
2022/03/28 12:43:53;;;;;;;137.40;133.17;;;;;;;;;;4991643;28;20409;-63
2022/03/28 12:46:19;;;;;;;141.10;136.63;;;;;;;;;;4990362;28;20437;-62
2022/03/28 12:48:46;;;;;;;184.77;178.87;;;;;;;;;;4990112;28;20441;-62
2022/03/28 12:51:13;;;;;;;189.77;183.73;;;;;;;;;;4989974;28;20515;-62
2022/03/28 12:53:40;;;;;;;197.67;191.27;;;;;;;;;;4992031;28;20387;-62
2022/03/28 12:56:14;;;;;;;212.00;205.23;;;;;;;;;;4991304;28;20524;-62
2022/03/28 12:58:40;;;;;;;215.83;208.97;;;;;;;;;;4991761;28;20395;-62
2022/03/28 13:01:09;;;;;;;206.10;199.53;;;;;;;;;;4991611;28;20445;-62
2022/03/28 13:03:35;;;;;;;208.97;202.33;;;;;;;;;;4991984;28;20889;-62
2022/03/28 13:06:02;;;;;;;206.07;199.47;;;;;;;;;;4992381;28;20424;-62
2022/03/28 13:08:38;;;;;;;198.23;191.93;;;;;;;;;;4992163;28;20446;-62
2022/03/28 13:11:12;;;;;;;195.30;189.03;;;;;;;;;;4974305;28;20436;-62
2022/03/28 13:13:38;;;;;;;184.83;178.87;;;;;;;;;;4991770;28;20380;-62
2022/03/28 13:16:05;;;;;;;187.53;181.43;;;;;;;;;;4991890;28;20444;-62
2022/03/28 13:18:33;;;;;;;206.67;200.00;;;;;;;;;;4991835;28;20424;-62
2022/03/28 13:20:59;;;;;;;205.67;199.10;;;;;;;;;;5010544;22;20533;-60
2022/03/28 13:23:26;;;;;;;221.73;214.57;;;;;;;;;;4988240;28;20925;-61
2022/03/28 13:25:52;;;;;;;219.03;211.63;;;;;;;;;;4991661;28;20404;-60
2022/03/28 13:28:22;;;;;;;211.97;205.13;;;;;;;;;;4995386;28;20778;-59
2022/03/28 13:30:54;;;;;;;227.50;220.13;;;;;;;;;;4993906;28;20443;-61
2022/03/28 13:33:22;;;;;;;223.00;215.80;;;;;;;;;;4991539;28;20404;-61
2022/03/28 13:35:49;;;;;;;189.67;183.43;;;;;;;;;;4991585;28;20804;-60
2022/03/28 13:38:16;;;;;;;213.57;206.57;;;;;;;;;;4990331;28;20822;-60
2022/03/28 13:40:44;;;;;;;227.53;220.10;;;;;;;;;;4992032;28;20417;-62
2022/03/28 13:43:10;;;;;;;206.17;199.47;;;;;;;;;;4993684;28;20855;-60
2022/03/28 13:45:36;;;;;;;215.80;208.60;;;;;;;;;;4993804;28;20425;-61
2022/03/28 13:48:05;;;;;;;237.67;229.63;;;;;;;;;;4993648;28;20957;-61
2022/03/28 13:50:32;;;;;;;229.00;221.37;;;;;;;;;;4993422;28;20439;-60
2022/03/28 13:52:59;;;;;;;215.13;208.07;;;;;;;;;;4993702;28;20408;-57
2022/03/28 13:55:26;;;;;;;202.67;195.97;;;;;;;;;;4993565;28;20392;-61
2022/03/28 13:57:52;;;;;;;225.10;217.63;;;;;;;;;;4993601;28;20381;-59
2022/03/28 14:00:18;;;;;;;184.87;178.73;;;;;;;;;;4992848;28;20518;-61
2022/03/28 14:02:44;;;;;;;169.30;163.70;;;;;;;;;;4993258;28;20753;-60
2022/03/28 14:05:10;;;;;;;160.63;155.33;;;;;;;;;;4993405;28;20898;-59
2022/03/28 14:07:36;;;;;;;164.17;158.57;;;;;;;;;;4993382;28;20470;-60